sensor_id;sensor_type;location;lat;lon;timestamp;P1;durP1;ratioP1;P2;durP2;ratioP2
39222;SDS011;24936;46.328;11.026;2023-08-20T18:30:12;15.32;;;14.32;;
39222;SDS011;24936;46.328;11.026;2023-08-20T18:32:38;14.07;;;13.13;;
39222;SDS011;24936;46.328;11.026;2023-08-20T18:35:05;13.30;;;12.40;;
39222;SDS011;24936;46.328;11.026;2023-08-20T18:37:31;13.23;;;12.43;;
39222;SDS011;24936;46.328;11.026;2023-08-20T18:39:57;15.52;;;14.50;;
39222;SDS011;24936;46.328;11.026;2023-08-20T18:42:22;29.98;;;28.23;;
39222;SDS011;24936;46.328;11.026;2023-08-20T18:44:48;33.28;;;31.17;;
39222;SDS011;24936;46.328;11.026;2023-08-20T18:47:13;32.63;;;30.52;;
39222;SDS011;24936;46.328;11.026;2023-08-20T18:49:39;37.33;;;34.88;;
39222;SDS011;24936;46.328;11.026;2023-08-20T18:52:04;33.63;;;31.58;;
39222;SDS011;24936;46.328;11.026;2023-08-20T18:54:33;31.00;;;29.17;;
39222;SDS011;24936;46.328;11.026;2023-08-20T18:56:58;34.35;;;32.25;;
39222;SDS011;24936;46.328;11.026;2023-08-20T18:59:24;32.92;;;30.83;;
39222;SDS011;24936;46.328;11.026;2023-08-20T19:01:50;29.88;;;28.15;;
39222;SDS011;24936;46.328;11.026;2023-08-20T19:04:16;18.25;;;17.10;;
39222;SDS011;24936;46.328;11.026;2023-08-20T19:06:41;32.05;;;30.13;;
39222;SDS011;24936;46.328;11.026;2023-08-20T19:09:07;29.30;;;27.60;;
39222;SDS011;24936;46.328;11.026;2023-08-20T19:11:33;31.17;;;29.27;;
39222;SDS011;24936;46.328;11.026;2023-08-20T19:13:59;31.52;;;29.60;;
39222;SDS011;24936;46.328;11.026;2023-08-20T19:16:24;27.33;;;25.70;;
39222;SDS011;24936;46.328;11.026;2023-08-20T19:18:50;23.85;;;22.40;;
39222;SDS011;24936;46.328;11.026;2023-08-20T19:21:16;27.20;;;25.45;;
39222;SDS011;24936;46.328;11.026;2023-08-20T19:23:42;36.05;;;33.90;;
39222;SDS011;24936;46.328;11.026;2023-08-20T19:26:10;30.83;;;28.92;;
39222;SDS011;24936;46.328;11.026;2023-08-20T19:28:39;29.08;;;27.27;;
39222;SDS011;24936;46.328;11.026;2023-08-20T19:31:05;27.95;;;25.95;;
39222;SDS011;24936;46.328;11.026;2023-08-20T19:33:30;25.08;;;23.55;;
39222;SDS011;24936;46.328;11.026;2023-08-20T19:36:01;23.08;;;21.63;;
39222;SDS011;24936;46.328;11.026;2023-08-20T19:38:28;25.58;;;24.05;;
39222;SDS011;24936;46.328;11.026;2023-08-20T19:40:54;24.23;;;22.73;;
39222;SDS011;24936;46.328;11.026;2023-08-20T19:43:21;25.40;;;23.83;;
39222;SDS011;24936;46.328;11.026;2023-08-20T19:45:47;22.63;;;21.33;;
39222;SDS011;24936;46.328;11.026;2023-08-20T19:48:13;19.00;;;17.83;;
39222;SDS011;24936;46.328;11.026;2023-08-20T19:50:39;22.23;;;20.85;;
39222;SDS011;24936;46.328;11.026;2023-08-20T19:53:05;24.17;;;22.52;;
39222;SDS011;24936;46.328;11.026;2023-08-20T19:55:30;22.85;;;21.45;;
39222;SDS011;24936;46.328;11.026;2023-08-20T19:57:56;21.17;;;19.83;;
39222;SDS011;24936;46.328;11.026;2023-08-20T20:00:22;20.05;;;18.70;;
39222;SDS011;24936;46.328;11.026;2023-08-20T20:02:48;24.23;;;22.77;;
39222;SDS011;24936;46.328;11.026;2023-08-20T20:05:17;27.10;;;25.50;;
39222;SDS011;24936;46.328;11.026;2023-08-20T20:07:45;26.02;;;24.52;;
39222;SDS011;24936;46.328;11.026;2023-08-20T20:10:11;27.30;;;25.52;;
39222;SDS011;24936;46.328;11.026;2023-08-20T20:12:37;27.95;;;26.05;;
39222;SDS011;24936;46.328;11.026;2023-08-20T20:15:04;26.48;;;24.88;;
39222;SDS011;24936;46.328;11.026;2023-08-20T20:17:30;23.25;;;21.95;;
39222;SDS011;24936;46.328;11.026;2023-08-20T20:19:57;25.52;;;23.95;;
39222;SDS011;24936;46.328;11.026;2023-08-20T20:22:26;25.55;;;24.00;;
39222;SDS011;24936;46.328;11.026;2023-08-20T20:24:55;27.67;;;26.00;;
39222;SDS011;24936;46.328;11.026;2023-08-20T20:27:21;30.55;;;28.75;;
39222;SDS011;24936;46.328;11.026;2023-08-20T20:29:48;25.80;;;24.30;;
39222;SDS011;24936;46.328;11.026;2023-08-20T20:32:14;28.23;;;26.27;;
39222;SDS011;24936;46.328;11.026;2023-08-20T20:34:40;27.83;;;25.83;;
39222;SDS011;24936;46.328;11.026;2023-08-20T20:37:06;31.42;;;29.00;;
39222;SDS011;24936;46.328;11.026;2023-08-20T20:39:32;27.67;;;25.98;;
39222;SDS011;24936;46.328;11.026;2023-08-20T20:41:59;25.88;;;24.33;;
39222;SDS011;24936;46.328;11.026;2023-08-20T20:44:24;27.40;;;25.52;;
39222;SDS011;24936;46.328;11.026;2023-08-20T20:46:50;27.67;;;26.00;;
39222;SDS011;24936;46.328;11.026;2023-08-20T20:49:15;17.08;;;15.95;;
39222;SDS011;24936;46.328;11.026;2023-08-20T20:51:41;22.70;;;21.38;;
39222;SDS011;24936;46.328;11.026;2023-08-20T20:54:06;22.92;;;21.48;;
39222;SDS011;24936;46.328;11.026;2023-08-20T20:56:32;17.20;;;16.00;;
39222;SDS011;24936;46.328;11.026;2023-08-20T20:58:57;27.17;;;25.50;;
39222;SDS011;24936;46.328;11.026;2023-08-20T21:01:23;25.48;;;23.90;;
39222;SDS011;24936;46.328;11.026;2023-08-20T21:03:49;24.85;;;23.35;;
39222;SDS011;24936;46.328;11.026;2023-08-20T21:06:16;26.27;;;24.77;;
39222;SDS011;24936;46.328;11.026;2023-08-20T21:08:41;25.27;;;23.77;;
39222;SDS011;24936;46.328;11.026;2023-08-20T21:11:07;26.45;;;24.85;;
39222;SDS011;24936;46.328;11.026;2023-08-20T21:13:32;25.52;;;24.02;;
39222;SDS011;24936;46.328;11.026;2023-08-20T21:15:57;25.58;;;24.05;;
39222;SDS011;24936;46.328;11.026;2023-08-20T21:18:23;10.95;;;10.25;;
39222;SDS011;24936;46.328;11.026;2023-08-20T21:20:48;10.70;;;10.02;;
39222;SDS011;24936;46.328;11.026;2023-08-20T21:23:14;11.20;;;10.35;;
39222;SDS011;24936;46.328;11.026;2023-08-20T21:25:39;11.63;;;10.88;;
39222;SDS011;24936;46.328;11.026;2023-08-20T21:28:05;10.95;;;10.25;;
39222;SDS011;24936;46.328;11.026;2023-08-20T21:30:31;10.18;;;9.32;;
39222;SDS011;24936;46.328;11.026;2023-08-20T21:32:57;9.63;;;9.02;;
39222;SDS011;24936;46.328;11.026;2023-08-20T21:35:22;11.98;;;10.98;;
39222;SDS011;24936;46.328;11.026;2023-08-20T21:37:48;10.88;;;10.07;;
39222;SDS011;24936;46.328;11.026;2023-08-20T21:40:13;10.55;;;9.75;;
39222;SDS011;24936;46.328;11.026;2023-08-20T21:42:39;10.38;;;9.68;;
39222;SDS011;24936;46.328;11.026;2023-08-20T21:45:05;10.48;;;9.77;;
39222;SDS011;24936;46.328;11.026;2023-08-20T21:47:30;10.48;;;9.68;;
39222;SDS011;24936;46.328;11.026;2023-08-20T21:49:56;24.25;;;22.67;;
39222;SDS011;24936;46.328;11.026;2023-08-20T21:52:22;11.45;;;10.52;;
39222;SDS011;24936;46.328;11.026;2023-08-20T21:54:50;12.15;;;11.35;;
39222;SDS011;24936;46.328;11.026;2023-08-20T21:57:17;10.95;;;10.25;;
39222;SDS011;24936;46.328;11.026;2023-08-20T21:59:45;9.77;;;9.18;;
39222;SDS011;24936;46.328;11.026;2023-08-20T22:02:11;9.43;;;8.75;;
39222;SDS011;24936;46.328;11.026;2023-08-20T22:04:36;10.20;;;9.50;;
39222;SDS011;24936;46.328;11.026;2023-08-20T22:07:02;10.15;;;9.45;;
39222;SDS011;24936;46.328;11.026;2023-08-20T22:09:28;8.88;;;8.07;;
39222;SDS011;24936;46.328;11.026;2023-08-20T22:11:53;9.93;;;9.23;;
39222;SDS011;24936;46.328;11.026;2023-08-20T22:14:19;9.82;;;9.13;;
39222;SDS011;24936;46.328;11.026;2023-08-20T22:16:46;9.63;;;8.93;;
39222;SDS011;24936;46.328;11.026;2023-08-20T22:19:11;9.50;;;8.90;;
39222;SDS011;24936;46.328;11.026;2023-08-20T22:21:37;8.57;;;7.97;;
39222;SDS011;24936;46.328;11.026;2023-08-20T22:24:03;9.07;;;8.48;;
39222;SDS011;24936;46.328;11.026;2023-08-20T22:26:28;9.10;;;8.40;;
39222;SDS011;24936;46.328;11.026;2023-08-20T22:28:54;10.88;;;9.82;;
39222;SDS011;24936;46.328;11.026;2023-08-20T22:31:20;9.50;;;8.85;;
39222;SDS011;24936;46.328;11.026;2023-08-20T22:33:46;8.35;;;7.68;;
39222;SDS011;24936;46.328;11.026;2023-08-20T22:36:11;11.55;;;10.75;;
39222;SDS011;24936;46.328;11.026;2023-08-20T22:38:37;8.07;;;7.57;;
39222;SDS011;24936;46.328;11.026;2023-08-20T22:41:02;10.50;;;9.80;;
39222;SDS011;24936;46.328;11.026;2023-08-20T22:43:28;11.98;;;11.07;;
39222;SDS011;24936;46.328;11.026;2023-08-20T22:45:53;10.95;;;10.25;;
39222;SDS011;24936;46.328;11.026;2023-08-20T22:48:19;8.90;;;8.23;;
39222;SDS011;24936;46.328;11.026;2023-08-20T22:50:45;11.30;;;10.43;;
39222;SDS011;24936;46.328;11.026;2023-08-20T22:53:11;9.90;;;9.25;;
39222;SDS011;24936;46.328;11.026;2023-08-20T22:55:37;8.48;;;7.88;;
39222;SDS011;24936;46.328;11.026;2023-08-20T22:58:02;10.20;;;9.38;;
39222;SDS011;24936;46.328;11.026;2023-08-20T23:00:28;8.82;;;8.23;;
39222;SDS011;24936;46.328;11.026;2023-08-20T23:02:54;8.93;;;8.32;;
39222;SDS011;24936;46.328;11.026;2023-08-20T23:05:20;10.77;;;9.98;;
39222;SDS011;24936;46.328;11.026;2023-08-20T23:07:45;9.75;;;9.10;;
39222;SDS011;24936;46.328;11.026;2023-08-20T23:10:11;9.95;;;9.05;;
39222;SDS011;24936;46.328;11.026;2023-08-20T23:12:36;9.25;;;8.60;;
39222;SDS011;24936;46.328;11.026;2023-08-20T23:15:02;11.00;;;10.23;;
39222;SDS011;24936;46.328;11.026;2023-08-20T23:17:29;11.27;;;10.45;;
39222;SDS011;24936;46.328;11.026;2023-08-20T23:19:55;9.43;;;8.60;;
39222;SDS011;24936;46.328;11.026;2023-08-20T23:22:21;8.05;;;7.45;;
39222;SDS011;24936;46.328;11.026;2023-08-20T23:24:47;9.57;;;8.85;;
39222;SDS011;24936;46.328;11.026;2023-08-20T23:27:13;7.80;;;7.30;;
39222;SDS011;24936;46.328;11.026;2023-08-20T23:29:38;8.30;;;7.68;;
39222;SDS011;24936;46.328;11.026;2023-08-20T23:32:04;7.63;;;7.13;;
39222;SDS011;24936;46.328;11.026;2023-08-20T23:34:30;10.50;;;9.57;;
39222;SDS011;24936;46.328;11.026;2023-08-20T23:36:57;7.82;;;7.22;;
39222;SDS011;24936;46.328;11.026;2023-08-20T23:39:22;9.43;;;8.77;;
39222;SDS011;24936;46.328;11.026;2023-08-20T23:41:49;8.85;;;8.13;;
39222;SDS011;24936;46.328;11.026;2023-08-20T23:44:14;8.00;;;7.40;;
39222;SDS011;24936;46.328;11.026;2023-08-20T23:46:41;7.78;;;7.18;;
39222;SDS011;24936;46.328;11.026;2023-08-20T23:49:07;7.97;;;7.38;;
39222;SDS011;24936;46.328;11.026;2023-08-20T23:51:35;8.15;;;7.45;;
39222;SDS011;24936;46.328;11.026;2023-08-20T23:54:01;8.82;;;8.02;;
39222;SDS011;24936;46.328;11.026;2023-08-20T23:56:27;8.23;;;7.55;;
39222;SDS011;24936;46.328;11.026;2023-08-20T23:58:54;9.90;;;9.20;;
